sensor_id;sensor_type;location;lat;lon;timestamp;P1;durP1;ratioP1;P2;durP2;ratioP2
58864;SDS011;45702;52.982;6.658;2022-12-29T00:00:59;11.15;;;7.95;;
58864;SDS011;45702;52.982;6.658;2022-12-29T00:03:25;13.05;;;8.52;;
58864;SDS011;45702;52.982;6.658;2022-12-29T00:05:55;14.23;;;9.02;;
58864;SDS011;45702;52.982;6.658;2022-12-29T00:08:21;12.38;;;8.77;;
58864;SDS011;45702;52.982;6.658;2022-12-29T00:11:04;12.38;;;8.88;;
58864;SDS011;45702;52.982;6.658;2022-12-29T00:13:33;11.98;;;8.15;;
58864;SDS011;45702;52.982;6.658;2022-12-29T00:16:17;15.70;;;9.70;;
58864;SDS011;45702;52.982;6.658;2022-12-29T00:18:42;15.05;;;9.25;;
58864;SDS011;45702;52.982;6.658;2022-12-29T00:21:13;13.40;;;9.18;;
58864;SDS011;45702;52.982;6.658;2022-12-29T00:23:59;12.82;;;8.68;;
58864;SDS011;45702;52.982;6.658;2022-12-29T00:26:43;14.10;;;9.75;;
58864;SDS011;45702;52.982;6.658;2022-12-29T00:29:29;12.82;;;8.60;;
58864;SDS011;45702;52.982;6.658;2022-12-29T00:32:13;15.13;;;8.32;;
58864;SDS011;45702;52.982;6.658;2022-12-29T00:34:57;15.85;;;10.25;;
58864;SDS011;45702;52.982;6.658;2022-12-29T00:37:39;18.23;;;10.23;;
58864;SDS011;45702;52.982;6.658;2022-12-29T00:40:26;14.25;;;9.02;;
58864;SDS011;45702;52.982;6.658;2022-12-29T00:43:10;15.77;;;9.80;;
58864;SDS011;45702;52.982;6.658;2022-12-29T00:45:54;11.90;;;8.50;;
58864;SDS011;45702;52.982;6.658;2022-12-29T00:48:20;13.38;;;8.50;;
58864;SDS011;45702;52.982;6.658;2022-12-29T00:51:05;17.00;;;9.00;;
58864;SDS011;45702;52.982;6.658;2022-12-29T00:53:31;14.73;;;8.95;;
58864;SDS011;45702;52.982;6.658;2022-12-29T00:55:57;12.55;;;8.07;;
58864;SDS011;45702;52.982;6.658;2022-12-29T00:58:23;13.48;;;8.60;;
58864;SDS011;45702;52.982;6.658;2022-12-29T01:00:48;12.70;;;8.43;;
58864;SDS011;45702;52.982;6.658;2022-12-29T01:03:14;12.43;;;7.93;;
58864;SDS011;45702;52.982;6.658;2022-12-29T01:05:40;13.73;;;8.77;;
58864;SDS011;45702;52.982;6.658;2022-12-29T01:08:05;11.77;;;7.20;;
58864;SDS011;45702;52.982;6.658;2022-12-29T01:10:31;11.65;;;7.88;;
58864;SDS011;45702;52.982;6.658;2022-12-29T01:12:56;12.02;;;7.60;;
58864;SDS011;45702;52.982;6.658;2022-12-29T01:15:22;11.32;;;7.40;;
58864;SDS011;45702;52.982;6.658;2022-12-29T01:17:48;12.63;;;8.20;;
58864;SDS011;45702;52.982;6.658;2022-12-29T01:20:13;9.63;;;7.32;;
58864;SDS011;45702;52.982;6.658;2022-12-29T01:22:39;15.30;;;7.75;;
58864;SDS011;45702;52.982;6.658;2022-12-29T01:25:05;15.07;;;7.97;;
58864;SDS011;45702;52.982;6.658;2022-12-29T01:27:31;11.68;;;7.50;;
58864;SDS011;45702;52.982;6.658;2022-12-29T01:29:57;10.27;;;7.05;;
58864;SDS011;45702;52.982;6.658;2022-12-29T01:32:22;9.25;;;6.88;;
58864;SDS011;45702;52.982;6.658;2022-12-29T01:34:48;10.23;;;6.50;;
58864;SDS011;45702;52.982;6.658;2022-12-29T01:37:14;9.43;;;6.40;;
58864;SDS011;45702;52.982;6.658;2022-12-29T01:39:39;9.65;;;6.63;;
58864;SDS011;45702;52.982;6.658;2022-12-29T01:42:08;7.28;;;5.35;;
58864;SDS011;45702;52.982;6.658;2022-12-29T01:47:06;9.02;;;5.57;;
58864;SDS011;45702;52.982;6.658;2022-12-29T01:49:33;10.07;;;5.78;;
58864;SDS011;45702;52.982;6.658;2022-12-29T01:52:01;9.70;;;5.50;;
58864;SDS011;45702;52.982;6.658;2022-12-29T01:56:58;9.95;;;5.47;;
58864;SDS011;45702;52.982;6.658;2022-12-29T01:59:28;10.07;;;5.78;;
58864;SDS011;45702;52.982;6.658;2022-12-29T02:01:59;10.35;;;6.10;;
58864;SDS011;45702;52.982;6.658;2022-12-29T02:04:26;9.50;;;5.50;;
58864;SDS011;45702;52.982;6.658;2022-12-29T02:06:57;11.90;;;5.63;;
58864;SDS011;45702;52.982;6.658;2022-12-29T02:09:28;8.73;;;6.18;;
58864;SDS011;45702;52.982;6.658;2022-12-29T02:11:54;8.88;;;5.80;;
58864;SDS011;45702;52.982;6.658;2022-12-29T02:14:20;11.35;;;5.18;;
58864;SDS011;45702;52.982;6.658;2022-12-29T02:16:56;8.55;;;5.82;;
58864;SDS011;45702;52.982;6.658;2022-12-29T02:22:24;7.05;;;5.00;;
58864;SDS011;45702;52.982;6.658;2022-12-29T02:27:46;7.15;;;4.47;;
58864;SDS011;45702;52.982;6.658;2022-12-29T02:33:29;8.05;;;4.72;;
58864;SDS011;45702;52.982;6.658;2022-12-29T02:36:20;10.18;;;4.80;;
58864;SDS011;45702;52.982;6.658;2022-12-29T02:38:56;8.05;;;4.75;;
58864;SDS011;45702;52.982;6.658;2022-12-29T02:41:31;7.05;;;4.95;;
58864;SDS011;45702;52.982;6.658;2022-12-29T02:46:37;8.90;;;5.47;;
58864;SDS011;45702;52.982;6.658;2022-12-29T02:52:01;10.70;;;5.28;;
58864;SDS011;45702;52.982;6.658;2022-12-29T02:57:26;9.35;;;5.10;;
58864;SDS011;45702;52.982;6.658;2022-12-29T02:59:56;8.90;;;5.10;;
58864;SDS011;45702;52.982;6.658;2022-12-29T03:10:23;6.23;;;3.40;;
58864;SDS011;45702;52.982;6.658;2022-12-29T03:12:56;7.57;;;4.30;;
58864;SDS011;45702;52.982;6.658;2022-12-29T03:16:01;4.65;;;3.67;;
58864;SDS011;45702;52.982;6.658;2022-12-29T03:24:52;6.32;;;3.85;;
58864;SDS011;45702;52.982;6.658;2022-12-29T03:27:22;6.28;;;3.47;;
58864;SDS011;45702;52.982;6.658;2022-12-29T03:29:55;5.70;;;3.08;;
58864;SDS011;45702;52.982;6.658;2022-12-29T03:32:26;4.38;;;2.88;;
58864;SDS011;45702;52.982;6.658;2022-12-29T03:34:56;6.80;;;3.00;;
58864;SDS011;45702;52.982;6.658;2022-12-29T03:37:24;4.05;;;2.97;;
58864;SDS011;45702;52.982;6.658;2022-12-29T03:39:55;5.88;;;2.97;;
58864;SDS011;45702;52.982;6.658;2022-12-29T03:42:23;7.88;;;3.22;;
58864;SDS011;45702;52.982;6.658;2022-12-29T03:44:53;4.95;;;2.95;;
58864;SDS011;45702;52.982;6.658;2022-12-29T03:47:21;6.90;;;3.70;;
58864;SDS011;45702;52.982;6.658;2022-12-29T03:49:48;7.13;;;3.42;;
58864;SDS011;45702;52.982;6.658;2022-12-29T03:52:15;4.63;;;3.03;;
58864;SDS011;45702;52.982;6.658;2022-12-29T03:54:41;6.05;;;2.95;;
58864;SDS011;45702;52.982;6.658;2022-12-29T03:57:07;5.05;;;3.00;;
58864;SDS011;45702;52.982;6.658;2022-12-29T03:59:33;5.65;;;2.97;;
58864;SDS011;45702;52.982;6.658;2022-12-29T04:01:59;7.68;;;3.58;;
58864;SDS011;45702;52.982;6.658;2022-12-29T04:04:25;6.28;;;2.90;;
58864;SDS011;45702;52.982;6.658;2022-12-29T04:06:50;6.30;;;2.78;;
58864;SDS011;45702;52.982;6.658;2022-12-29T04:09:16;9.40;;;2.75;;
58864;SDS011;45702;52.982;6.658;2022-12-29T04:11:42;6.72;;;2.72;;
58864;SDS011;45702;52.982;6.658;2022-12-29T04:14:07;7.50;;;2.70;;
58864;SDS011;45702;52.982;6.658;2022-12-29T04:16:33;8.23;;;2.63;;
58864;SDS011;45702;52.982;6.658;2022-12-29T04:19:01;8.02;;;2.78;;
58864;SDS011;45702;52.982;6.658;2022-12-29T04:21:27;7.57;;;2.35;;
58864;SDS011;45702;52.982;6.658;2022-12-29T04:23:53;5.00;;;2.05;;
58864;SDS011;45702;52.982;6.658;2022-12-29T04:26:18;6.93;;;2.30;;
58864;SDS011;45702;52.982;6.658;2022-12-29T04:28:44;5.20;;;1.80;;
58864;SDS011;45702;52.982;6.658;2022-12-29T04:31:10;5.45;;;2.05;;
58864;SDS011;45702;52.982;6.658;2022-12-29T04:33:35;5.63;;;1.63;;
58864;SDS011;45702;52.982;6.658;2022-12-29T04:36:01;4.18;;;1.63;;
58864;SDS011;45702;52.982;6.658;2022-12-29T04:38:27;7.50;;;1.90;;
58864;SDS011;45702;52.982;6.658;2022-12-29T04:40:53;8.00;;;1.83;;
58864;SDS011;45702;52.982;6.658;2022-12-29T04:43:19;6.28;;;1.73;;
58864;SDS011;45702;52.982;6.658;2022-12-29T04:45:46;5.43;;;1.65;;
58864;SDS011;45702;52.982;6.658;2022-12-29T04:48:12;6.30;;;1.98;;
58864;SDS011;45702;52.982;6.658;2022-12-29T04:50:39;6.60;;;2.10;;
58864;SDS011;45702;52.982;6.658;2022-12-29T04:53:05;4.82;;;2.22;;
58864;SDS011;45702;52.982;6.658;2022-12-29T04:55:31;7.70;;;2.35;;
58864;SDS011;45702;52.982;6.658;2022-12-29T04:57:57;7.32;;;2.47;;
58864;SDS011;45702;52.982;6.658;2022-12-29T05:00:23;9.25;;;2.47;;
58864;SDS011;45702;52.982;6.658;2022-12-29T05:02:49;6.85;;;2.47;;
58864;SDS011;45702;52.982;6.658;2022-12-29T05:05:14;10.60;;;2.50;;
58864;SDS011;45702;52.982;6.658;2022-12-29T05:07:40;6.53;;;2.50;;
58864;SDS011;45702;52.982;6.658;2022-12-29T05:10:06;7.32;;;2.70;;
58864;SDS011;45702;52.982;6.658;2022-12-29T05:12:33;10.05;;;2.30;;
58864;SDS011;45702;52.982;6.658;2022-12-29T05:15:00;7.35;;;2.47;;
58864;SDS011;45702;52.982;6.658;2022-12-29T05:17:27;12.57;;;2.55;;
58864;SDS011;45702;52.982;6.658;2022-12-29T05:19:53;11.45;;;2.50;;
58864;SDS011;45702;52.982;6.658;2022-12-29T05:22:19;16.83;;;2.88;;
58864;SDS011;45702;52.982;6.658;2022-12-29T05:24:45;13.77;;;2.53;;
58864;SDS011;45702;52.982;6.658;2022-12-29T05:27:11;11.82;;;2.28;;
58864;SDS011;45702;52.982;6.658;2022-12-29T05:29:37;13.98;;;2.58;;
58864;SDS011;45702;52.982;6.658;2022-12-29T05:32:02;10.82;;;2.55;;
58864;SDS011;45702;52.982;6.658;2022-12-29T05:34:29;14.95;;;2.45;;
58864;SDS011;45702;52.982;6.658;2022-12-29T05:36:54;17.70;;;2.78;;
58864;SDS011;45702;52.982;6.658;2022-12-29T05:39:20;10.50;;;2.20;;
58864;SDS011;45702;52.982;6.658;2022-12-29T05:41:46;11.43;;;2.47;;
58864;SDS011;45702;52.982;6.658;2022-12-29T05:44:11;10.75;;;2.40;;
58864;SDS011;45702;52.982;6.658;2022-12-29T05:46:37;11.52;;;2.10;;
58864;SDS011;45702;52.982;6.658;2022-12-29T05:49:03;19.27;;;2.55;;
58864;SDS011;45702;52.982;6.658;2022-12-29T05:51:30;11.70;;;2.40;;
58864;SDS011;45702;52.982;6.658;2022-12-29T05:53:55;10.88;;;2.08;;
58864;SDS011;45702;52.982;6.658;2022-12-29T05:56:21;10.40;;;2.30;;
58864;SDS011;45702;52.982;6.658;2022-12-29T05:58:47;10.63;;;2.20;;
58864;SDS011;45702;52.982;6.658;2022-12-29T06:01:13;13.27;;;2.28;;
58864;SDS011;45702;52.982;6.658;2022-12-29T06:03:38;10.13;;;2.30;;
58864;SDS011;45702;52.982;6.658;2022-12-29T06:06:04;10.90;;;1.77;;
58864;SDS011;45702;52.982;6.658;2022-12-29T06:08:30;8.98;;;1.83;;
58864;SDS011;45702;52.982;6.658;2022-12-29T06:10:55;8.30;;;2.10;;
58864;SDS011;45702;52.982;6.658;2022-12-29T06:13:21;10.98;;;2.10;;
58864;SDS011;45702;52.982;6.658;2022-12-29T06:15:50;11.38;;;2.53;;
58864;SDS011;45702;52.982;6.658;2022-12-29T06:18:16;12.25;;;2.08;;
58864;SDS011;45702;52.982;6.658;2022-12-29T06:20:42;8.82;;;1.80;;
58864;SDS011;45702;52.982;6.658;2022-12-29T06:23:08;9.75;;;2.10;;
58864;SDS011;45702;52.982;6.658;2022-12-29T06:25:33;9.10;;;2.00;;
58864;SDS011;45702;52.982;6.658;2022-12-29T06:28:00;15.30;;;2.40;;
58864;SDS011;45702;52.982;6.658;2022-12-29T06:30:27;16.98;;;2.63;;
58864;SDS011;45702;52.982;6.658;2022-12-29T06:32:52;14.65;;;2.50;;
58864;SDS011;45702;52.982;6.658;2022-12-29T06:35:19;18.08;;;2.33;;
58864;SDS011;45702;52.982;6.658;2022-12-29T06:37:47;17.97;;;2.30;;
58864;SDS011;45702;52.982;6.658;2022-12-29T06:40:13;15.52;;;2.50;;
58864;SDS011;45702;52.982;6.658;2022-12-29T06:42:39;12.75;;;2.13;;
58864;SDS011;45702;52.982;6.658;2022-12-29T06:45:05;12.70;;;2.08;;
58864;SDS011;45702;52.982;6.658;2022-12-29T06:47:32;15.20;;;2.70;;
58864;SDS011;45702;52.982;6.658;2022-12-29T06:49:59;20.20;;;3.00;;
58864;SDS011;45702;52.982;6.658;2022-12-29T06:52:24;14.90;;;2.30;;
58864;SDS011;45702;52.982;6.658;2022-12-29T06:54:50;13.38;;;2.30;;
58864;SDS011;45702;52.982;6.658;2022-12-29T06:57:16;13.90;;;2.22;;
58864;SDS011;45702;52.982;6.658;2022-12-29T06:59:41;15.93;;;2.17;;
58864;SDS011;45702;52.982;6.658;2022-12-29T07:02:08;20.67;;;2.28;;
58864;SDS011;45702;52.982;6.658;2022-12-29T07:04:35;12.05;;;2.40;;
58864;SDS011;45702;52.982;6.658;2022-12-29T07:07:01;18.83;;;2.28;;
58864;SDS011;45702;52.982;6.658;2022-12-29T07:09:27;14.85;;;2.58;;
58864;SDS011;45702;52.982;6.658;2022-12-29T07:11:52;16.17;;;2.55;;
58864;SDS011;45702;52.982;6.658;2022-12-29T07:14:18;11.60;;;2.22;;
58864;SDS011;45702;52.982;6.658;2022-12-29T07:16:44;14.73;;;2.13;;
58864;SDS011;45702;52.982;6.658;2022-12-29T07:19:09;14.55;;;2.38;;
58864;SDS011;45702;52.982;6.658;2022-12-29T07:21:35;12.30;;;2.47;;
58864;SDS011;45702;52.982;6.658;2022-12-29T07:24:00;14.15;;;2.65;;
58864;SDS011;45702;52.982;6.658;2022-12-29T07:26:26;17.92;;;3.00;;
58864;SDS011;45702;52.982;6.658;2022-12-29T07:28:52;11.52;;;2.28;;
58864;SDS011;45702;52.982;6.658;2022-12-29T07:31:19;13.25;;;2.30;;
58864;SDS011;45702;52.982;6.658;2022-12-29T07:33:46;18.58;;;2.78;;
58864;SDS011;45702;52.982;6.658;2022-12-29T07:36:13;17.15;;;2.20;;
58864;SDS011;45702;52.982;6.658;2022-12-29T07:38:39;9.73;;;2.50;;
58864;SDS011;45702;52.982;6.658;2022-12-29T07:41:05;12.07;;;2.75;;
58864;SDS011;45702;52.982;6.658;2022-12-29T07:43:31;11.93;;;2.22;;
58864;SDS011;45702;52.982;6.658;2022-12-29T07:45:57;15.73;;;2.40;;
58864;SDS011;45702;52.982;6.658;2022-12-29T07:48:22;10.82;;;2.30;;
58864;SDS011;45702;52.982;6.658;2022-12-29T07:50:48;12.02;;;2.42;;
58864;SDS011;45702;52.982;6.658;2022-12-29T07:53:14;17.60;;;2.60;;
58864;SDS011;45702;52.982;6.658;2022-12-29T07:55:40;16.55;;;2.90;;
58864;SDS011;45702;52.982;6.658;2022-12-29T07:58:06;17.17;;;2.40;;
58864;SDS011;45702;52.982;6.658;2022-12-29T08:00:32;12.45;;;2.13;;
58864;SDS011;45702;52.982;6.658;2022-12-29T08:02:57;16.38;;;2.50;;
58864;SDS011;45702;52.982;6.658;2022-12-29T08:05:23;16.88;;;2.25;;
58864;SDS011;45702;52.982;6.658;2022-12-29T08:07:49;19.17;;;2.78;;
58864;SDS011;45702;52.982;6.658;2022-12-29T08:10:15;18.70;;;2.60;;
58864;SDS011;45702;52.982;6.658;2022-12-29T08:12:41;18.70;;;1.90;;
58864;SDS011;45702;52.982;6.658;2022-12-29T08:15:08;18.35;;;2.67;;
58864;SDS011;45702;52.982;6.658;2022-12-29T08:17:35;20.45;;;3.03;;
58864;SDS011;45702;52.982;6.658;2022-12-29T08:20:01;16.38;;;3.03;;
58864;SDS011;45702;52.982;6.658;2022-12-29T08:22:27;24.70;;;3.33;;
58864;SDS011;45702;52.982;6.658;2022-12-29T08:24:53;16.70;;;2.58;;
58864;SDS011;45702;52.982;6.658;2022-12-29T08:27:19;15.65;;;3.00;;
58864;SDS011;45702;52.982;6.658;2022-12-29T08:29:44;21.67;;;3.55;;
58864;SDS011;45702;52.982;6.658;2022-12-29T08:32:10;15.55;;;2.70;;
58864;SDS011;45702;52.982;6.658;2022-12-29T08:34:36;23.17;;;3.25;;
58864;SDS011;45702;52.982;6.658;2022-12-29T08:37:02;15.93;;;2.75;;
58864;SDS011;45702;52.982;6.658;2022-12-29T08:39:28;25.45;;;3.25;;
58864;SDS011;45702;52.982;6.658;2022-12-29T08:41:54;23.98;;;2.72;;
58864;SDS011;45702;52.982;6.658;2022-12-29T08:44:20;24.83;;;3.70;;
58864;SDS011;45702;52.982;6.658;2022-12-29T08:46:46;25.10;;;3.33;;
58864;SDS011;45702;52.982;6.658;2022-12-29T08:49:11;23.60;;;3.25;;
58864;SDS011;45702;52.982;6.658;2022-12-29T08:51:37;24.77;;;3.25;;
58864;SDS011;45702;52.982;6.658;2022-12-29T08:54:03;18.45;;;3.05;;
58864;SDS011;45702;52.982;6.658;2022-12-29T08:56:28;24.15;;;3.15;;
58864;SDS011;45702;52.982;6.658;2022-12-29T08:58:54;21.02;;;3.05;;
58864;SDS011;45702;52.982;6.658;2022-12-29T09:01:20;21.55;;;2.65;;
58864;SDS011;45702;52.982;6.658;2022-12-29T09:03:46;20.08;;;2.65;;
58864;SDS011;45702;52.982;6.658;2022-12-29T09:06:12;19.33;;;2.83;;
58864;SDS011;45702;52.982;6.658;2022-12-29T09:08:39;22.58;;;3.15;;
58864;SDS011;45702;52.982;6.658;2022-12-29T09:11:06;20.42;;;2.70;;
58864;SDS011;45702;52.982;6.658;2022-12-29T09:13:35;12.52;;;2.17;;
58864;SDS011;45702;52.982;6.658;2022-12-29T09:16:01;19.95;;;2.83;;
58864;SDS011;45702;52.982;6.658;2022-12-29T09:18:27;19.73;;;2.85;;
58864;SDS011;45702;52.982;6.658;2022-12-29T09:21:00;23.10;;;3.22;;
58864;SDS011;45702;52.982;6.658;2022-12-29T09:23:28;17.90;;;2.70;;
58864;SDS011;45702;52.982;6.658;2022-12-29T09:25:54;19.60;;;2.78;;
58864;SDS011;45702;52.982;6.658;2022-12-29T09:28:20;13.55;;;2.22;;
58864;SDS011;45702;52.982;6.658;2022-12-29T09:30:46;18.48;;;2.60;;
58864;SDS011;45702;52.982;6.658;2022-12-29T09:33:12;14.23;;;2.53;;
58864;SDS011;45702;52.982;6.658;2022-12-29T09:35:42;22.70;;;2.83;;
58864;SDS011;45702;52.982;6.658;2022-12-29T09:38:09;15.20;;;2.53;;
58864;SDS011;45702;52.982;6.658;2022-12-29T09:40:35;17.98;;;2.80;;
58864;SDS011;45702;52.982;6.658;2022-12-29T09:45:54;25.13;;;3.30;;
58864;SDS011;45702;52.982;6.658;2022-12-29T09:48:41;19.92;;;3.13;;
58864;SDS011;45702;52.982;6.658;2022-12-29T09:51:11;18.05;;;2.85;;
58864;SDS011;45702;52.982;6.658;2022-12-29T09:53:41;20.38;;;2.88;;
58864;SDS011;45702;52.982;6.658;2022-12-29T10:01:43;26.40;;;2.80;;
58864;SDS011;45702;52.982;6.658;2022-12-29T10:04:30;23.20;;;3.25;;
58864;SDS011;45702;52.982;6.658;2022-12-29T10:06:57;18.25;;;2.70;;
58864;SDS011;45702;52.982;6.658;2022-12-29T10:26:38;20.65;;;3.78;;
58864;SDS011;45702;52.982;6.658;2022-12-29T10:29:06;18.60;;;3.72;;
58864;SDS011;45702;52.982;6.658;2022-12-29T10:31:41;21.27;;;3.63;;
58864;SDS011;45702;52.982;6.658;2022-12-29T10:34:14;30.70;;;5.60;;
58864;SDS011;45702;52.982;6.658;2022-12-29T10:36:51;18.73;;;3.38;;
58864;SDS011;45702;52.982;6.658;2022-12-29T10:44:56;20.48;;;3.35;;
58864;SDS011;45702;52.982;6.658;2022-12-29T10:47:28;20.13;;;3.17;;
58864;SDS011;45702;52.982;6.658;2022-12-29T10:49:57;16.05;;;3.22;;
58864;SDS011;45702;52.982;6.658;2022-12-29T10:52:25;17.00;;;3.20;;
58864;SDS011;45702;52.982;6.658;2022-12-29T10:55:00;20.55;;;3.60;;
58864;SDS011;45702;52.982;6.658;2022-12-29T10:57:37;19.23;;;3.47;;
58864;SDS011;45702;52.982;6.658;2022-12-29T11:00:12;18.23;;;3.13;;
58864;SDS011;45702;52.982;6.658;2022-12-29T11:05:36;27.23;;;3.90;;
58864;SDS011;45702;52.982;6.658;2022-12-29T11:08:17;18.48;;;3.40;;
58864;SDS011;45702;52.982;6.658;2022-12-29T11:10:45;21.35;;;3.85;;
58864;SDS011;45702;52.982;6.658;2022-12-29T11:13:26;20.80;;;3.50;;
58864;SDS011;45702;52.982;6.658;2022-12-29T11:15:53;14.77;;;2.80;;
58864;SDS011;45702;52.982;6.658;2022-12-29T11:23:24;25.20;;;3.78;;
58864;SDS011;45702;52.982;6.658;2022-12-29T11:28:36;13.35;;;2.95;;
58864;SDS011;45702;52.982;6.658;2022-12-29T11:31:06;20.33;;;3.33;;
58864;SDS011;45702;52.982;6.658;2022-12-29T11:33:36;11.60;;;2.57;;
58864;SDS011;45702;52.982;6.658;2022-12-29T11:36:04;16.25;;;2.97;;
58864;SDS011;45702;52.982;6.658;2022-12-29T11:38:37;15.55;;;4.20;;
58864;SDS011;45702;52.982;6.658;2022-12-29T11:41:05;14.65;;;2.80;;
58864;SDS011;45702;52.982;6.658;2022-12-29T11:43:40;22.05;;;3.53;;
58864;SDS011;45702;52.982;6.658;2022-12-29T11:46:15;20.83;;;4.20;;
58864;SDS011;45702;52.982;6.658;2022-12-29T11:48:43;24.50;;;4.05;;
58864;SDS011;45702;52.982;6.658;2022-12-29T11:51:11;26.00;;;4.33;;
58864;SDS011;45702;52.982;6.658;2022-12-29T11:53:46;25.10;;;4.10;;
58864;SDS011;45702;52.982;6.658;2022-12-29T11:56:17;23.08;;;4.07;;
58864;SDS011;45702;52.982;6.658;2022-12-29T11:58:47;34.58;;;4.60;;
58864;SDS011;45702;52.982;6.658;2022-12-29T12:01:33;32.78;;;4.90;;
58864;SDS011;45702;52.982;6.658;2022-12-29T12:04:03;23.90;;;3.78;;
58864;SDS011;45702;52.982;6.658;2022-12-29T12:06:30;24.25;;;4.40;;
58864;SDS011;45702;52.982;6.658;2022-12-29T12:09:02;24.08;;;3.80;;
58864;SDS011;45702;52.982;6.658;2022-12-29T12:11:33;28.67;;;4.63;;
58864;SDS011;45702;52.982;6.658;2022-12-29T12:16:50;35.00;;;5.25;;
58864;SDS011;45702;52.982;6.658;2022-12-29T12:19:31;39.00;;;5.28;;
58864;SDS011;45702;52.982;6.658;2022-12-29T12:22:03;38.30;;;5.07;;
58864;SDS011;45702;52.982;6.658;2022-12-29T12:24:44;33.88;;;4.97;;
58864;SDS011;45702;52.982;6.658;2022-12-29T12:27:31;37.22;;;4.03;;
58864;SDS011;45702;52.982;6.658;2022-12-29T12:32:46;24.30;;;4.28;;
58864;SDS011;45702;52.982;6.658;2022-12-29T12:40:47;27.65;;;3.85;;
58864;SDS011;45702;52.982;6.658;2022-12-29T12:46:19;20.75;;;2.65;;
58864;SDS011;45702;52.982;6.658;2022-12-29T13:02:36;29.98;;;3.92;;
58864;SDS011;45702;52.982;6.658;2022-12-29T13:05:13;25.60;;;3.00;;
58864;SDS011;45702;52.982;6.658;2022-12-29T13:10:42;26.65;;;3.40;;
58864;SDS011;45702;52.982;6.658;2022-12-29T13:24:19;27.90;;;3.60;;
58864;SDS011;45702;52.982;6.658;2022-12-29T13:32:41;22.13;;;3.00;;
58864;SDS011;45702;52.982;6.658;2022-12-29T13:38:00;24.67;;;3.22;;
58864;SDS011;45702;52.982;6.658;2022-12-29T13:43:06;20.85;;;2.70;;
58864;SDS011;45702;52.982;6.658;2022-12-29T13:45:34;14.68;;;2.25;;
58864;SDS011;45702;52.982;6.658;2022-12-29T13:48:09;19.38;;;2.60;;
58864;SDS011;45702;52.982;6.658;2022-12-29T13:50:45;19.73;;;2.67;;
58864;SDS011;45702;52.982;6.658;2022-12-29T13:53:20;19.17;;;2.70;;
58864;SDS011;45702;52.982;6.658;2022-12-29T13:58:33;25.05;;;3.30;;
58864;SDS011;45702;52.982;6.658;2022-12-29T14:01:17;29.13;;;2.97;;
58864;SDS011;45702;52.982;6.658;2022-12-29T14:03:57;20.85;;;3.50;;
58864;SDS011;45702;52.982;6.658;2022-12-29T14:11:24;29.75;;;3.38;;
58864;SDS011;45702;52.982;6.658;2022-12-29T14:13:56;29.17;;;3.50;;
58864;SDS011;45702;52.982;6.658;2022-12-29T14:16:26;21.92;;;2.92;;
58864;SDS011;45702;52.982;6.658;2022-12-29T14:19:03;16.88;;;2.83;;
58864;SDS011;45702;52.982;6.658;2022-12-29T14:21:39;22.45;;;3.17;;
58864;SDS011;45702;52.982;6.658;2022-12-29T14:34:50;22.25;;;2.65;;
58864;SDS011;45702;52.982;6.658;2022-12-29T14:40:05;13.13;;;2.17;;
58864;SDS011;45702;52.982;6.658;2022-12-29T14:42:42;13.25;;;2.50;;
58864;SDS011;45702;52.982;6.658;2022-12-29T14:47:39;17.55;;;2.70;;
58864;SDS011;45702;52.982;6.658;2022-12-29T14:50:16;15.30;;;2.20;;
58864;SDS011;45702;52.982;6.658;2022-12-29T14:52:49;17.30;;;2.53;;
58864;SDS011;45702;52.982;6.658;2022-12-29T14:57:52;17.95;;;2.42;;
58864;SDS011;45702;52.982;6.658;2022-12-29T15:00:32;16.85;;;2.50;;
58864;SDS011;45702;52.982;6.658;2022-12-29T15:03:14;19.90;;;2.20;;
58864;SDS011;45702;52.982;6.658;2022-12-29T15:06:06;16.80;;;2.78;;
58864;SDS011;45702;52.982;6.658;2022-12-29T15:08:42;20.10;;;2.53;;
58864;SDS011;45702;52.982;6.658;2022-12-29T15:14:03;16.98;;;2.78;;
58864;SDS011;45702;52.982;6.658;2022-12-29T15:16:48;14.80;;;2.08;;
58864;SDS011;45702;52.982;6.658;2022-12-29T15:19:24;20.42;;;2.40;;
58864;SDS011;45702;52.982;6.658;2022-12-29T15:21:50;16.40;;;2.30;;
58864;SDS011;45702;52.982;6.658;2022-12-29T15:24:18;14.38;;;2.63;;
58864;SDS011;45702;52.982;6.658;2022-12-29T15:26:45;19.67;;;2.53;;
58864;SDS011;45702;52.982;6.658;2022-12-29T15:32:16;10.23;;;2.30;;
58864;SDS011;45702;52.982;6.658;2022-12-29T15:34:51;23.50;;;2.80;;
58864;SDS011;45702;52.982;6.658;2022-12-29T15:37:19;17.20;;;2.72;;
58864;SDS011;45702;52.982;6.658;2022-12-29T15:39:49;20.42;;;2.40;;
58864;SDS011;45702;52.982;6.658;2022-12-29T15:42:19;15.40;;;2.88;;
58864;SDS011;45702;52.982;6.658;2022-12-29T15:44:50;17.45;;;2.95;;
58864;SDS011;45702;52.982;6.658;2022-12-29T15:49:48;15.73;;;3.35;;
58864;SDS011;45702;52.982;6.658;2022-12-29T15:52:19;18.15;;;3.22;;
58864;SDS011;45702;52.982;6.658;2022-12-29T15:54:50;18.35;;;3.00;;
58864;SDS011;45702;52.982;6.658;2022-12-29T15:57:22;18.83;;;2.90;;
58864;SDS011;45702;52.982;6.658;2022-12-29T15:59:53;20.98;;;3.90;;
58864;SDS011;45702;52.982;6.658;2022-12-29T16:02:20;20.65;;;3.00;;
58864;SDS011;45702;52.982;6.658;2022-12-29T16:07:27;22.95;;;4.07;;
58864;SDS011;45702;52.982;6.658;2022-12-29T16:09:59;17.70;;;4.18;;
58864;SDS011;45702;52.982;6.658;2022-12-29T16:12:29;23.67;;;3.60;;
58864;SDS011;45702;52.982;6.658;2022-12-29T16:14:59;22.42;;;2.97;;
58864;SDS011;45702;52.982;6.658;2022-12-29T16:17:47;22.55;;;3.30;;
58864;SDS011;45702;52.982;6.658;2022-12-29T16:20:20;19.88;;;3.50;;
58864;SDS011;45702;52.982;6.658;2022-12-29T16:22:49;25.80;;;3.97;;
58864;SDS011;45702;52.982;6.658;2022-12-29T16:27:53;21.75;;;4.18;;
58864;SDS011;45702;52.982;6.658;2022-12-29T16:30:27;19.75;;;3.42;;
58864;SDS011;45702;52.982;6.658;2022-12-29T16:32:56;20.13;;;3.53;;
58864;SDS011;45702;52.982;6.658;2022-12-29T16:35:24;20.73;;;3.67;;
58864;SDS011;45702;52.982;6.658;2022-12-29T16:43:27;19.08;;;3.88;;
58864;SDS011;45702;52.982;6.658;2022-12-29T16:46:19;16.38;;;4.07;;
58864;SDS011;45702;52.982;6.658;2022-12-29T16:48:52;11.90;;;3.83;;
58864;SDS011;45702;52.982;6.658;2022-12-29T16:51:22;19.77;;;2.95;;
58864;SDS011;45702;52.982;6.658;2022-12-29T16:53:54;10.35;;;3.03;;
58864;SDS011;45702;52.982;6.658;2022-12-29T16:56:22;7.32;;;2.05;;
58864;SDS011;45702;52.982;6.658;2022-12-29T16:58:55;5.13;;;1.45;;
58864;SDS011;45702;52.982;6.658;2022-12-29T17:01:28;7.17;;;1.73;;
58864;SDS011;45702;52.982;6.658;2022-12-29T17:03:57;3.97;;;1.17;;
58864;SDS011;45702;52.982;6.658;2022-12-29T17:06:25;4.95;;;1.20;;
58864;SDS011;45702;52.982;6.658;2022-12-29T17:08:51;3.88;;;1.48;;
58864;SDS011;45702;52.982;6.658;2022-12-29T17:11:33;8.40;;;1.77;;
58864;SDS011;45702;52.982;6.658;2022-12-29T17:20:28;6.60;;;1.40;;
58864;SDS011;45702;52.982;6.658;2022-12-29T17:22:53;6.18;;;1.40;;
58864;SDS011;45702;52.982;6.658;2022-12-29T17:25:20;6.35;;;2.00;;
58864;SDS011;45702;52.982;6.658;2022-12-29T17:27:57;6.22;;;2.33;;
58864;SDS011;45702;52.982;6.658;2022-12-29T17:30:25;9.63;;;1.80;;
58864;SDS011;45702;52.982;6.658;2022-12-29T17:32:55;8.00;;;2.00;;
58864;SDS011;45702;52.982;6.658;2022-12-29T17:35:26;4.72;;;1.80;;
58864;SDS011;45702;52.982;6.658;2022-12-29T17:37:52;8.60;;;2.08;;
58864;SDS011;45702;52.982;6.658;2022-12-29T17:40:21;7.05;;;2.60;;
58864;SDS011;45702;52.982;6.658;2022-12-29T17:42:53;9.77;;;2.92;;
58864;SDS011;45702;52.982;6.658;2022-12-29T17:45:25;10.30;;;3.33;;
58864;SDS011;45702;52.982;6.658;2022-12-29T17:47:55;11.48;;;3.92;;
58864;SDS011;45702;52.982;6.658;2022-12-29T17:50:25;11.07;;;3.50;;
58864;SDS011;45702;52.982;6.658;2022-12-29T17:52:57;12.40;;;3.45;;
58864;SDS011;45702;52.982;6.658;2022-12-29T17:55:25;17.73;;;3.90;;